Time;durP1;ratioP1;P1;durP2;ratioP2;P2;SDS_P1;SDS_P2;PMS_P1;PMS_P2;Temp;Humidity;BMP_temperature;BMP_pressure;BME280_temperature;BME280_humidity;BME280_pressure;Samples;Min_cycle;Max_cycle;Signal;HPM_P1;HPM_P2
2023/03/09 00:01:30;;;;;;;12.90;9.67;;;3.20;99.90;;;;;;5034671;28;20424;-78
2023/03/09 00:03:57;;;;;;;11.80;9.47;;;3.10;99.90;;;;;;5053553;28;20506;-81
2023/03/09 00:06:23;;;;;;;10.60;8.30;;;3.30;99.90;;;;;;5044536;28;20449;-81
2023/03/09 00:08:48;;;;;;;12.20;8.90;;;3.10;99.90;;;;;;5068682;28;20440;-80
2023/03/09 00:11:15;;;;;;;10.50;8.90;;;3.20;99.90;;;;;;5056711;28;20527;-80
2023/03/09 00:13:42;;;;;;;11.90;8.73;;;3.30;99.90;;;;;;5050287;28;20665;-79
2023/03/09 00:16:20;;;;;;;11.50;8.70;;;3.10;99.90;;;;;;5058584;28;20412;-79
2023/03/09 00:18:46;;;;;;;13.07;10.23;;;3.10;99.90;;;;;;5049698;28;20444;-80
2023/03/09 00:21:33;;;;;;;14.40;10.73;;;3.20;99.90;;;;;;5031040;28;20420;-81
2023/03/09 00:23:58;;;;;;;11.97;9.57;;;3.20;99.90;;;;;;5043229;28;20519;-80
2023/03/09 00:26:23;;;;;;;13.63;10.60;;;3.20;99.90;;;;;;5053152;28;20458;-79
2023/03/09 00:28:50;;;;;;;14.10;9.73;;;3.00;99.90;;;;;;5056349;28;20206;-80
2023/03/09 00:31:15;;;;;;;13.50;9.83;;;3.20;99.90;;;;;;5047727;28;20208;-80
2023/03/09 00:33:41;;;;;;;18.10;11.50;;;2.90;99.90;;;;;;5050781;28;20421;-82
2023/03/09 00:36:12;;;;;;;15.03;10.97;;;3.10;99.90;;;;;;5061512;28;20189;-78
2023/03/09 00:38:37;;;;;;;14.27;9.90;;;3.20;99.90;;;;;;5035258;28;20285;-81
2023/03/09 00:41:03;;;;;;;14.70;10.33;;;3.10;99.90;;;;;;5053057;28;20482;-80
2023/03/09 00:43:29;;;;;;;14.40;9.53;;;3.20;99.90;;;;;;5062732;28;20187;-80
2023/03/09 00:45:55;;;;;;;13.80;10.40;;;3.00;99.90;;;;;;5050834;28;20579;-77
2023/03/09 00:48:20;;;;;;;14.37;10.10;;;3.00;99.90;;;;;;5053331;28;20212;-77
2023/03/09 00:50:46;;;;;;;14.90;9.90;;;3.20;99.90;;;;;;5052061;28;20186;-78
2023/03/09 00:53:12;;;;;;;14.90;10.27;;;3.10;99.90;;;;;;5045457;28;20193;-77
2023/03/09 00:55:37;;;;;;;14.23;10.33;;;3.30;99.90;;;;;;5058162;28;20207;-78
2023/03/09 00:58:03;;;;;;;14.23;10.33;;;3.10;99.90;;;;;;5051625;28;20929;-80
2023/03/09 01:00:32;;;;;;;16.23;11.53;;;3.10;99.90;;;;;;5057960;28;20800;-80
2023/03/09 01:02:58;;;;;;;13.47;10.90;;;3.20;99.90;;;;;;5054401;28;20571;-77
2023/03/09 01:05:23;;;;;;;14.13;9.97;;;3.00;99.90;;;;;;5057644;28;20443;-78
2023/03/09 01:07:49;;;;;;;16.43;11.67;;;3.10;99.90;;;;;;5049678;28;20273;-78
2023/03/09 01:10:15;;;;;;;14.23;10.60;;;3.00;99.90;;;;;;5056170;28;20268;-76
2023/03/09 01:12:42;;;;;;;15.67;10.23;;;3.30;99.90;;;;;;5063641;28;20201;-79
2023/03/09 01:15:08;;;;;;;13.93;10.50;;;3.10;99.90;;;;;;5055315;28;20412;-80
2023/03/09 01:17:34;;;;;;;15.57;11.27;;;3.30;99.90;;;;;;5054090;28;20428;-79
2023/03/09 01:19:59;;;;;;;14.57;10.00;;;3.10;99.90;;;;;;5053078;28;20745;-80
2023/03/09 01:22:25;;;;;;;13.10;10.20;;;3.20;99.90;;;;;;5053204;28;20185;-80
2023/03/09 01:24:50;;;;;;;15.33;10.20;;;3.10;99.90;;;;;;5054466;28;20618;-78
2023/03/09 01:27:16;;;;;;;17.57;11.93;;;3.30;99.90;;;;;;5052997;28;20202;-79
2023/03/09 01:29:42;;;;;;;20.60;12.47;;;3.20;99.90;;;;;;5054035;28;20177;-80
2023/03/09 01:32:07;;;;;;;15.43;10.30;;;3.10;99.90;;;;;;5036212;28;20229;-80
2023/03/09 01:34:33;;;;;;;16.57;11.20;;;3.00;99.90;;;;;;5054205;28;20538;-80
2023/03/09 01:36:59;;;;;;;15.97;12.20;;;2.90;99.90;;;;;;5036384;28;20654;-78
2023/03/09 01:39:24;;;;;;;14.70;10.90;;;3.10;99.90;;;;;;5054013;28;20620;-80
2023/03/09 01:41:50;;;;;;;18.27;12.00;;;3.20;99.90;;;;;;5053891;28;20281;-79
2023/03/09 01:44:16;;;;;;;18.07;11.37;;;3.10;99.90;;;;;;5053856;28;20174;-80
2023/03/09 01:46:56;;;;;;;17.00;11.33;;;3.10;99.90;;;;;;5052882;28;20174;-80
2023/03/09 01:49:48;;;;;;;20.00;11.70;;;3.20;99.90;;;;;;5054494;28;20178;-80
2023/03/09 01:52:25;;;;;;;16.00;11.93;;;3.10;99.90;;;;;;5054346;28;20519;-80
2023/03/09 01:55:06;;;;;;;20.13;11.93;;;3.00;99.90;;;;;;5054879;28;20953;-80
2023/03/09 01:57:53;;;;;;;17.60;11.67;;;3.20;99.90;;;;;;5052853;28;20839;-81
2023/03/09 02:00:23;;;;;;;18.43;12.47;;;3.10;99.90;;;;;;5035754;28;20397;-80
2023/03/09 02:02:53;;;;;;;20.00;12.60;;;3.20;99.90;;;;;;5052820;28;20432;-81
2023/03/09 02:05:47;;;;;;;21.10;13.77;;;3.00;99.90;;;;;;5053203;28;20436;-81
2023/03/09 02:08:13;;;;;;;19.60;13.00;;;3.10;99.90;;;;;;5044858;28;20494;-79
2023/03/09 02:11:00;;;;;;;22.73;14.17;;;3.20;99.90;;;;;;5053088;28;20414;-79
2023/03/09 02:13:39;;;;;;;25.93;15.10;;;3.20;99.90;;;;;;5052399;28;20439;-78
2023/03/09 02:16:06;;;;;;;24.83;14.70;;;3.20;99.90;;;;;;5054111;28;20405;-80
2023/03/09 02:18:32;;;;;;;24.30;15.67;;;3.00;99.90;;;;;;5051397;28;20424;-76
2023/03/09 02:21:16;;;;;;;30.73;17.27;;;3.10;99.90;;;;;;5036115;28;20509;-81
2023/03/09 02:24:10;;;;;;;33.83;17.30;;;3.10;99.90;;;;;;5048190;28;21028;-78
2023/03/09 02:26:41;;;;;;;29.50;16.90;;;3.00;99.90;;;;;;5043035;28;20420;-80
2023/03/09 02:29:11;;;;;;;32.87;17.60;;;3.10;99.90;;;;;;5028813;28;20431;-79
2023/03/09 02:31:37;;;;;;;31.50;18.37;;;3.30;99.90;;;;;;5051818;28;20460;-79
2023/03/09 02:34:03;;;;;;;33.57;19.00;;;3.00;99.90;;;;;;5054916;28;20427;-79
2023/03/09 02:36:28;;;;;;;32.13;18.57;;;2.90;99.90;;;;;;5054335;28;20406;-79
2023/03/09 02:38:57;;;;;;;28.50;16.77;;;3.10;99.90;;;;;;5051892;28;20205;-80
2023/03/09 02:41:22;;;;;;;33.03;17.83;;;3.20;99.90;;;;;;5049947;28;20182;-80
2023/03/09 02:43:54;;;;;;;26.30;16.00;;;3.20;99.90;;;;;;5055569;28;20476;-80
2023/03/09 02:46:20;;;;;;;26.93;17.17;;;3.00;99.90;;;;;;5053890;28;20188;-79
2023/03/09 02:48:46;;;;;;;25.17;15.80;;;3.10;99.90;;;;;;5064352;28;20435;-77
2023/03/09 02:51:12;;;;;;;25.13;15.10;;;3.20;99.90;;;;;;5049301;28;20194;-80
2023/03/09 02:53:38;;;;;;;26.40;15.50;;;3.20;99.90;;;;;;5045136;28;20183;-77
2023/03/09 02:56:04;;;;;;;24.90;15.47;;;3.10;99.90;;;;;;5057884;28;20201;-76
2023/03/09 02:58:29;;;;;;;25.83;16.73;;;3.20;99.90;;;;;;5055787;28;20428;-79
2023/03/09 03:00:55;;;;;;;26.60;16.60;;;3.20;99.90;;;;;;5042922;28;20948;-80
2023/03/09 03:03:21;;;;;;;24.60;15.80;;;3.10;99.90;;;;;;5048039;28;20189;-79
2023/03/09 03:05:47;;;;;;;27.13;16.50;;;3.10;99.90;;;;;;5041772;28;20197;-80
2023/03/09 03:08:14;;;;;;;26.07;15.07;;;3.10;99.90;;;;;;5046469;28;20286;-80
2023/03/09 03:10:39;;;;;;;26.37;15.57;;;3.10;99.90;;;;;;5060017;28;20428;-78
2023/03/09 03:13:05;;;;;;;30.77;16.80;;;3.10;99.90;;;;;;5059568;28;20411;-80
2023/03/09 03:15:31;;;;;;;25.60;15.67;;;3.20;99.90;;;;;;5052704;28;20182;-80
2023/03/09 03:17:57;;;;;;;29.23;15.77;;;3.20;99.90;;;;;;5064286;28;20682;-78
2023/03/09 03:20:23;;;;;;;26.27;15.70;;;3.10;99.90;;;;;;5048035;28;20182;-80
2023/03/09 03:22:48;;;;;;;28.43;17.87;;;3.20;99.90;;;;;;5053254;28;20418;-78
2023/03/09 03:25:16;;;;;;;28.47;16.17;;;3.30;99.90;;;;;;5058643;28;20178;-78
2023/03/09 03:27:42;;;;;;;27.47;16.23;;;3.30;99.90;;;;;;5062810;28;20646;-79
2023/03/09 03:30:09;;;;;;;28.10;17.57;;;3.40;99.90;;;;;;5050964;28;20421;-79
2023/03/09 03:32:35;;;;;;;31.30;18.17;;;3.10;99.90;;;;;;5042476;28;20538;-78
2023/03/09 03:35:01;;;;;;;34.03;18.67;;;3.30;99.90;;;;;;5050982;28;20437;-76
2023/03/09 03:37:26;;;;;;;31.07;17.00;;;3.20;99.90;;;;;;5048804;28;20186;-79
2023/03/09 03:39:52;;;;;;;28.60;17.27;;;3.20;99.90;;;;;;5051646;28;20215;-81
2023/03/09 03:42:18;;;;;;;32.40;18.00;;;3.10;99.90;;;;;;5051783;28;20269;-78
2023/03/09 03:44:44;;;;;;;30.30;17.80;;;3.20;99.90;;;;;;5050729;28;20187;-80
2023/03/09 03:47:09;;;;;;;27.30;17.90;;;3.20;99.90;;;;;;5047485;28;20210;-79
2023/03/09 03:49:35;;;;;;;31.83;16.90;;;3.30;99.90;;;;;;5051248;28;20189;-80
2023/03/09 03:52:01;;;;;;;32.80;18.40;;;3.20;99.90;;;;;;5047493;28;20891;-78
2023/03/09 03:54:26;;;;;;;28.43;17.17;;;3.40;99.90;;;;;;5060260;28;20887;-80
2023/03/09 03:56:52;;;;;;;29.57;17.10;;;3.20;99.90;;;;;;5044851;28;20178;-79
2023/03/09 03:59:18;;;;;;;30.03;17.23;;;3.30;99.90;;;;;;5048496;28;20182;-76
2023/03/09 04:01:43;;;;;;;31.83;17.50;;;3.40;99.90;;;;;;5043805;28;20186;-80
2023/03/09 04:04:09;;;;;;;33.50;18.80;;;3.40;99.90;;;;;;5060688;28;20247;-79
2023/03/09 04:06:35;;;;;;;30.30;17.27;;;3.20;99.90;;;;;;5026159;28;20201;-78
2023/03/09 04:09:01;;;;;;;32.40;18.93;;;3.30;99.90;;;;;;5065541;28;20275;-78
2023/03/09 04:11:26;;;;;;;26.50;16.90;;;3.20;99.90;;;;;;5072089;28;20216;-78
2023/03/09 04:13:52;;;;;;;29.67;18.43;;;3.20;99.90;;;;;;5070776;28;20411;-77
2023/03/09 04:16:18;;;;;;;27.10;17.33;;;3.10;99.90;;;;;;5072497;28;20172;-80
2023/03/09 04:18:44;;;;;;;29.47;17.27;;;3.20;99.90;;;;;;5072068;28;20193;-80
2023/03/09 04:21:10;;;;;;;32.40;19.40;;;3.30;99.90;;;;;;5072891;28;20926;-80
2023/03/09 04:23:35;;;;;;;26.43;16.80;;;3.20;99.90;;;;;;5071746;28;20420;-79
2023/03/09 04:26:04;;;;;;;31.33;17.67;;;3.40;99.90;;;;;;5072052;28;20208;-78
2023/03/09 04:28:29;;;;;;;29.40;17.27;;;3.20;99.90;;;;;;5071963;28;20200;-80
2023/03/09 04:30:55;;;;;;;25.50;16.80;;;3.20;99.90;;;;;;5072048;28;20461;-76
2023/03/09 04:33:21;;;;;;;28.13;17.10;;;3.20;99.90;;;;;;5072186;28;20177;-78
2023/03/09 04:35:47;;;;;;;31.47;17.70;;;3.40;99.90;;;;;;5075893;28;20185;-77
2023/03/09 04:38:13;;;;;;;34.10;18.10;;;3.20;99.90;;;;;;5077010;28;20550;-79
2023/03/09 04:40:39;;;;;;;32.70;18.67;;;3.40;99.90;;;;;;5075669;28;20410;-77
2023/03/09 04:43:05;;;;;;;32.80;18.57;;;3.20;99.90;;;;;;5075663;28;20415;-80
2023/03/09 04:45:31;;;;;;;32.77;17.33;;;3.10;99.90;;;;;;5077813;28;20177;-79
2023/03/09 04:47:57;;;;;;;31.77;17.73;;;3.20;99.90;;;;;;5077033;28;21295;-78
2023/03/09 04:50:23;;;;;;;33.37;18.67;;;3.20;99.90;;;;;;5076245;28;20252;-80
2023/03/09 04:52:49;;;;;;;29.87;18.60;;;3.30;99.90;;;;;;5077326;28;20433;-80
2023/03/09 04:55:16;;;;;;;30.93;16.80;;;3.20;99.90;;;;;;5076332;28;20413;-78
2023/03/09 04:57:42;;;;;;;30.37;18.07;;;3.00;99.90;;;;;;5075478;28;20431;-78
2023/03/09 05:00:10;;;;;;;32.27;18.63;;;3.10;99.90;;;;;;5077398;28;20433;-78
2023/03/09 05:02:38;;;;;;;31.57;17.70;;;3.10;99.90;;;;;;5076703;28;20486;-79
2023/03/09 05:05:05;;;;;;;30.37;18.40;;;3.10;99.90;;;;;;5076816;28;20424;-80
2023/03/09 05:07:31;;;;;;;30.50;18.40;;;3.20;99.90;;;;;;5076823;28;21061;-79
2023/03/09 05:09:56;;;;;;;28.27;17.90;;;3.10;99.90;;;;;;5076651;28;20415;-79
2023/03/09 05:12:22;;;;;;;30.83;18.47;;;3.00;99.90;;;;;;5076689;28;20615;-78
2023/03/09 05:14:47;;;;;;;34.00;18.83;;;3.30;99.90;;;;;;5075173;28;20177;-80
2023/03/09 05:17:13;;;;;;;37.87;20.13;;;3.10;99.90;;;;;;5076336;28;20228;-80
2023/03/09 05:19:39;;;;;;;39.70;20.50;;;3.20;99.90;;;;;;5077175;28;20162;-79
2023/03/09 05:22:05;;;;;;;32.50;19.13;;;3.30;99.90;;;;;;5064583;28;20180;-78
2023/03/09 05:24:32;;;;;;;36.23;20.70;;;3.30;99.90;;;;;;5056973;28;20470;-76
2023/03/09 05:26:57;;;;;;;39.33;22.10;;;3.00;99.90;;;;;;5056680;28;20429;-78
2023/03/09 05:29:23;;;;;;;35.43;21.30;;;2.90;99.90;;;;;;5057130;28;20404;-78
2023/03/09 05:31:49;;;;;;;39.63;20.60;;;3.10;99.90;;;;;;5057115;28;20297;-78
2023/03/09 05:34:15;;;;;;;36.90;20.53;;;3.00;99.90;;;;;;5057171;28;20173;-77
2023/03/09 05:36:40;;;;;;;39.50;19.77;;;3.10;99.90;;;;;;5056112;28;20253;-79
2023/03/09 05:39:06;;;;;;;41.07;21.00;;;3.10;99.90;;;;;;5057158;28;20504;-77
2023/03/09 05:41:32;;;;;;;36.80;19.43;;;3.30;99.90;;;;;;5056954;28;20178;-79
2023/03/09 05:44:01;;;;;;;37.20;19.07;;;3.30;99.90;;;;;;5055613;28;20225;-77
2023/03/09 05:46:26;;;;;;;39.30;21.13;;;3.30;99.90;;;;;;5071792;28;20197;-80
2023/03/09 05:48:52;;;;;;;39.37;20.07;;;3.20;99.90;;;;;;5075689;28;20581;-80
2023/03/09 05:51:19;;;;;;;39.70;21.37;;;3.10;99.90;;;;;;5076324;28;20458;-77
2023/03/09 05:53:44;;;;;;;43.57;22.37;;;3.10;99.90;;;;;;5075643;28;20184;-78
2023/03/09 05:56:10;;;;;;;39.60;21.50;;;3.10;99.90;;;;;;5075851;28;20415;-80
2023/03/09 05:58:36;;;;;;;40.93;20.37;;;3.10;99.90;;;;;;5076957;28;20280;-77
2023/03/09 06:01:02;;;;;;;51.43;21.57;;;3.20;99.90;;;;;;5085405;28;20443;-76
2023/03/09 06:03:28;;;;;;;40.13;20.40;;;3.10;99.90;;;;;;5083493;28;20426;-77
2023/03/09 06:05:58;;;;;;;42.03;22.10;;;3.00;99.90;;;;;;5074762;28;20474;-78
2023/03/09 06:08:24;;;;;;;43.53;22.63;;;3.30;99.90;;;;;;5072936;28;20454;-77
2023/03/09 06:10:50;;;;;;;40.20;20.27;;;3.10;99.90;;;;;;5073423;28;20407;-78
2023/03/09 06:13:15;;;;;;;40.00;21.67;;;3.00;99.90;;;;;;5054791;28;20181;-80
2023/03/09 06:15:42;;;;;;;42.37;22.13;;;3.30;99.90;;;;;;5072432;28;20211;-79
2023/03/09 06:18:08;;;;;;;43.50;23.20;;;3.20;99.90;;;;;;5071673;28;20273;-80
2023/03/09 06:20:33;;;;;;;43.60;21.60;;;3.20;99.90;;;;;;5071436;28;20506;-79
2023/03/09 06:22:59;;;;;;;43.30;20.43;;;3.10;99.90;;;;;;5053164;28;20420;-79
2023/03/09 06:25:25;;;;;;;44.40;22.60;;;3.00;99.90;;;;;;5053259;28;20177;-77
2023/03/09 06:27:50;;;;;;;41.57;20.70;;;3.10;99.90;;;;;;5053142;28;20208;-78
2023/03/09 06:30:16;;;;;;;40.30;22.13;;;3.20;99.90;;;;;;5053333;28;20200;-79
2023/03/09 06:32:42;;;;;;;45.40;21.80;;;3.10;99.90;;;;;;5052280;28;20300;-79
2023/03/09 06:35:08;;;;;;;47.50;23.43;;;3.20;99.90;;;;;;5052206;28;20231;-78
2023/03/09 06:37:33;;;;;;;47.57;22.63;;;3.30;99.90;;;;;;5051952;28;20201;-79
2023/03/09 06:39:59;;;;;;;43.40;22.50;;;3.30;99.90;;;;;;5051666;28;20412;-78
2023/03/09 06:42:25;;;;;;;48.80;23.73;;;3.30;99.90;;;;;;5049810;28;20183;-78
2023/03/09 06:44:50;;;;;;;50.50;22.70;;;3.40;99.90;;;;;;5056966;28;20185;-80
2023/03/09 06:47:16;;;;;;;41.27;22.00;;;3.20;99.90;;;;;;5072255;28;20291;-79
2023/03/09 06:49:43;;;;;;;40.83;20.67;;;3.40;99.90;;;;;;5062932;28;20182;-80
2023/03/09 06:52:09;;;;;;;39.30;21.10;;;3.20;99.90;;;;;;5051940;28;20217;-79
2023/03/09 06:54:35;;;;;;;47.07;22.17;;;3.40;99.90;;;;;;5052835;28;20481;-79
2023/03/09 06:57:01;;;;;;;39.97;21.37;;;3.20;99.90;;;;;;5051349;28;20432;-79
2023/03/09 06:59:29;;;;;;;38.20;20.20;;;3.20;99.90;;;;;;5052666;28;20169;-79
2023/03/09 07:01:55;;;;;;;42.30;20.60;;;3.20;99.90;;;;;;5053544;28;20556;-80
2023/03/09 07:04:21;;;;;;;44.40;22.67;;;3.10;99.90;;;;;;5052452;28;20416;-78
2023/03/09 07:06:46;;;;;;;42.60;23.23;;;3.40;99.90;;;;;;5035158;28;20216;-78
2023/03/09 07:09:12;;;;;;;38.23;21.00;;;3.30;99.90;;;;;;5050875;28;20196;-80
2023/03/09 07:11:38;;;;;;;41.17;21.60;;;3.50;99.90;;;;;;5039501;28;20202;-79
2023/03/09 07:14:03;;;;;;;37.30;19.30;;;3.20;99.90;;;;;;5031336;28;20218;-78
2023/03/09 07:16:30;;;;;;;39.60;19.13;;;3.30;99.90;;;;;;5033125;28;20181;-79
2023/03/09 07:18:56;;;;;;;45.20;21.50;;;3.20;99.90;;;;;;5032351;28;20260;-80
2023/03/09 07:21:22;;;;;;;43.20;20.83;;;3.40;99.90;;;;;;5038579;28;20939;-80
2023/03/09 07:23:47;;;;;;;39.00;19.33;;;3.40;99.90;;;;;;5052398;28;20495;-79
2023/03/09 07:26:13;;;;;;;42.07;22.73;;;3.20;99.90;;;;;;5052888;28;20652;-78
2023/03/09 07:28:39;;;;;;;42.73;21.13;;;3.40;99.90;;;;;;5051447;28;20220;-78
2023/03/09 07:31:09;;;;;;;43.87;21.90;;;3.40;99.90;;;;;;5051160;28;20209;-78
2023/03/09 07:33:35;;;;;;;38.70;21.60;;;3.30;99.90;;;;;;5046662;28;20425;-79
2023/03/09 07:36:08;;;;;;;42.10;21.23;;;3.30;99.90;;;;;;5043390;28;20412;-77
2023/03/09 07:38:34;;;;;;;39.40;19.83;;;3.40;99.90;;;;;;5050999;28;20204;-77
2023/03/09 07:41:01;;;;;;;41.27;21.97;;;3.60;99.90;;;;;;5051668;28;20409;-80
2023/03/09 07:43:27;;;;;;;41.80;21.73;;;3.60;99.90;;;;;;5053000;28;20499;-80
2023/03/09 07:45:53;;;;;;;38.00;20.90;;;3.50;99.90;;;;;;5064722;28;20426;-80
2023/03/09 07:48:19;;;;;;;36.03;19.50;;;3.50;99.90;;;;;;5072056;28;20435;-80
2023/03/09 07:50:44;;;;;;;35.27;18.73;;;3.50;99.90;;;;;;5072166;28;20626;-78
2023/03/09 07:53:10;;;;;;;40.07;20.37;;;3.30;99.90;;;;;;5072365;28;20173;-77
2023/03/09 07:55:36;;;;;;;40.20;20.70;;;3.40;99.90;;;;;;5071502;28;20177;-80
2023/03/09 07:58:02;;;;;;;36.93;19.83;;;3.40;99.90;;;;;;5072372;28;20434;-79
2023/03/09 08:00:28;;;;;;;37.70;19.50;;;3.50;99.90;;;;;;5072201;28;20487;-78
2023/03/09 08:02:56;;;;;;;36.63;18.90;;;3.60;99.90;;;;;;5070633;28;20494;-77
2023/03/09 08:05:22;;;;;;;46.43;20.63;;;3.50;99.90;;;;;;5056466;28;20448;-80
2023/03/09 08:07:49;;;;;;;44.33;22.53;;;3.50;99.90;;;;;;5033492;28;20506;-80
2023/03/09 08:10:16;;;;;;;37.90;20.63;;;3.70;99.90;;;;;;5031864;28;20503;-80
2023/03/09 08:12:43;;;;;;;45.17;22.77;;;3.70;99.90;;;;;;5041019;28;20474;-77
2023/03/09 08:15:09;;;;;;;42.53;23.00;;;3.70;99.90;;;;;;5042479;28;20784;-80
2023/03/09 08:17:35;;;;;;;52.77;24.83;;;3.70;99.90;;;;;;5043578;28;20487;-78
2023/03/09 08:20:01;;;;;;;51.07;23.70;;;3.60;99.90;;;;;;5016969;28;20845;-80
2023/03/09 08:22:26;;;;;;;47.10;24.77;;;3.60;99.90;;;;;;5047187;28;20268;-79
2023/03/09 08:24:52;;;;;;;49.97;23.53;;;3.90;99.90;;;;;;5050514;28;20785;-76
2023/03/09 08:27:18;;;;;;;45.20;23.27;;;3.90;99.90;;;;;;5052071;28;20224;-79
2023/03/09 08:29:43;;;;;;;41.10;21.40;;;3.70;99.90;;;;;;5052241;28;20539;-77
2023/03/09 08:32:09;;;;;;;39.60;19.87;;;3.60;99.90;;;;;;5050826;28;20695;-79
2023/03/09 08:34:36;;;;;;;45.60;22.10;;;3.60;99.90;;;;;;5034268;28;20235;-78
2023/03/09 08:37:01;;;;;;;45.07;23.90;;;3.80;99.90;;;;;;5051606;28;20490;-80
2023/03/09 08:39:27;;;;;;;43.33;23.00;;;3.60;99.90;;;;;;5051531;28;20412;-79
2023/03/09 08:41:53;;;;;;;42.00;22.13;;;3.80;99.90;;;;;;5050136;28;20178;-78
2023/03/09 08:44:18;;;;;;;47.80;22.97;;;3.90;99.90;;;;;;5051601;28;20174;-80
2023/03/09 08:46:44;;;;;;;45.87;22.60;;;3.90;99.90;;;;;;5069667;28;20206;-78
2023/03/09 08:49:10;;;;;;;41.20;21.73;;;3.90;99.90;;;;;;5071114;28;20181;-77
2023/03/09 08:51:35;;;;;;;42.00;21.87;;;3.80;99.90;;;;;;5071737;28;20200;-77
2023/03/09 08:54:01;;;;;;;43.60;22.40;;;3.90;99.90;;;;;;5070688;28;20248;-80
2023/03/09 08:56:26;;;;;;;42.63;22.27;;;4.00;99.90;;;;;;5071894;28;20220;-78
2023/03/09 08:58:52;;;;;;;44.10;23.80;;;3.90;99.90;;;;;;5071750;28;20197;-78
2023/03/09 09:01:18;;;;;;;39.60;20.40;;;4.10;99.90;;;;;;5071899;28;20259;-77
2023/03/09 09:03:44;;;;;;;41.17;22.57;;;3.90;99.90;;;;;;5070433;28;20268;-78
2023/03/09 09:06:13;;;;;;;48.43;23.40;;;3.80;99.90;;;;;;5070661;28;20432;-77
2023/03/09 09:08:40;;;;;;;42.17;22.97;;;4.10;99.90;;;;;;5072569;28;20647;-78
2023/03/09 09:11:14;;;;;;;42.80;21.80;;;4.20;99.90;;;;;;5070951;28;20463;-80
2023/03/09 09:13:40;;;;;;;42.70;22.97;;;4.30;99.90;;;;;;5072573;28;20404;-80
2023/03/09 09:16:08;;;;;;;44.77;22.33;;;4.30;99.90;;;;;;5073009;28;20408;-77
2023/03/09 09:18:36;;;;;;;45.33;23.73;;;4.10;99.90;;;;;;5073047;28;20917;-78
2023/03/09 09:21:08;;;;;;;42.13;21.10;;;4.30;99.90;;;;;;5068516;28;20405;-79
2023/03/09 09:23:38;;;;;;;41.00;22.40;;;4.10;99.90;;;;;;5056635;28;20780;-78
2023/03/09 09:26:05;;;;;;;43.47;21.47;;;4.40;99.90;;;;;;5057007;28;20400;-79
2023/03/09 09:28:31;;;;;;;40.80;21.77;;;4.20;99.90;;;;;;5054940;28;20424;-79
2023/03/09 09:31:01;;;;;;;42.27;23.30;;;4.00;99.90;;;;;;5055747;28;21054;-78
2023/03/09 09:33:28;;;;;;;45.20;24.40;;;4.30;99.90;;;;;;5054954;28;20226;-78
2023/03/09 09:36:02;;;;;;;44.13;22.57;;;4.30;99.90;;;;;;5056749;28;20417;-79
2023/03/09 09:38:30;;;;;;;40.63;22.90;;;4.20;99.90;;;;;;5056417;28;20457;-79
2023/03/09 09:40:58;;;;;;;49.90;25.03;;;4.30;99.90;;;;;;5056247;28;20812;-78
2023/03/09 09:43:24;;;;;;;48.17;25.37;;;4.30;99.90;;;;;;5055944;28;20878;-79
2023/03/09 09:45:56;;;;;;;45.60;24.10;;;4.40;99.90;;;;;;5066457;28;20443;-78
2023/03/09 09:48:22;;;;;;;43.90;22.13;;;4.40;99.90;;;;;;5075062;28;20433;-79
2023/03/09 09:50:54;;;;;;;46.90;24.00;;;4.30;99.90;;;;;;5075313;28;20439;-77
2023/03/09 09:53:27;;;;;;;52.60;24.73;;;4.30;99.90;;;;;;5074339;28;20960;-78
2023/03/09 09:55:54;;;;;;;47.80;24.60;;;4.50;99.90;;;;;;5076313;28;20412;-78
2023/03/09 09:58:30;;;;;;;47.67;24.50;;;4.40;99.90;;;;;;5075179;28;20431;-77
2023/03/09 10:00:59;;;;;;;49.27;25.27;;;4.50;99.90;;;;;;5075548;28;20415;-79
2023/03/09 10:03:36;;;;;;;52.03;25.87;;;4.60;99.90;;;;;;5074220;28;20411;-77
2023/03/09 10:06:21;;;;;;;51.07;24.47;;;4.50;99.90;;;;;;5075680;28;20423;-78
2023/03/09 10:09:13;;;;;;;49.93;24.60;;;4.40;99.90;;;;;;5075108;28;20427;-80
2023/03/09 10:11:46;;;;;;;52.10;26.20;;;4.60;99.90;;;;;;5074375;28;20471;-79
2023/03/09 10:14:35;;;;;;;46.73;23.13;;;4.60;99.90;;;;;;5073912;28;20408;-78
2023/03/09 10:17:20;;;;;;;41.60;21.53;;;4.40;99.90;;;;;;5075146;28;20408;-78
2023/03/09 10:19:48;;;;;;;44.80;23.67;;;4.60;99.90;;;;;;5074349;28;20411;-79
2023/03/09 10:22:16;;;;;;;47.17;24.83;;;4.50;99.90;;;;;;5061215;28;20424;-78
2023/03/09 10:24:43;;;;;;;41.63;22.90;;;4.50;99.90;;;;;;5055034;28;20447;-78
2023/03/09 10:28:00;;;;;;;43.23;21.80;;;4.60;99.90;;;;;;5054458;28;20439;-78
2023/03/09 10:30:46;;;;;;;44.30;23.77;;;4.70;99.90;;;;;;5052772;28;20412;-78
2023/03/09 10:33:25;;;;;;;40.00;21.70;;;4.70;99.90;;;;;;5054006;28;20452;-78
2023/03/09 10:36:10;;;;;;;43.60;22.33;;;4.80;99.90;;;;;;5055036;28;20413;-77
2023/03/09 10:38:38;;;;;;;41.57;22.27;;;4.70;99.90;;;;;;5054354;28;20440;-78
2023/03/09 10:41:10;;;;;;;42.03;21.63;;;4.60;99.90;;;;;;5053136;28;20855;-78
2023/03/09 10:43:36;;;;;;;37.77;21.37;;;4.70;99.90;;;;;;5053416;28;20419;-78
2023/03/09 10:46:24;;;;;;;40.07;21.67;;;4.90;99.90;;;;;;5064901;28;20500;-78
2023/03/09 10:49:12;;;;;;;42.73;22.30;;;4.60;99.90;;;;;;5072336;28;20435;-78
2023/03/09 10:51:44;;;;;;;39.47;20.13;;;4.80;99.90;;;;;;5082701;28;20485;-78
2023/03/09 10:54:17;;;;;;;44.10;21.63;;;4.60;99.90;;;;;;5079887;28;20416;-78
2023/03/09 10:56:44;;;;;;;38.77;21.77;;;5.00;99.90;;;;;;5052879;28;20423;-78
2023/03/09 10:59:20;;;;;;;46.00;22.77;;;5.00;99.90;;;;;;5053107;28;20419;-77
2023/03/09 11:01:48;;;;;;;36.13;22.37;;;5.00;99.90;;;;;;5071034;28;20992;-78
2023/03/09 11:04:23;;;;;;;39.77;22.60;;;5.00;99.90;;;;;;5069352;28;20412;-78
2023/03/09 11:06:53;;;;;;;40.10;23.13;;;5.00;99.90;;;;;;5070190;28;20447;-78
2023/03/09 11:09:42;;;;;;;40.10;21.87;;;4.80;99.90;;;;;;5070765;28;20412;-78
2023/03/09 11:12:47;;;;;;;41.33;23.07;;;5.00;99.90;;;;;;5069924;28;20471;-78
2023/03/09 11:15:15;;;;;;;43.40;22.57;;;5.10;99.90;;;;;;5070774;28;20419;-78
2023/03/09 11:17:43;;;;;;;39.93;22.77;;;5.00;99.90;;;;;;5070163;28;21005;-78
2023/03/09 11:20:12;;;;;;;43.37;21.97;;;5.10;99.90;;;;;;5070433;28;20407;-78
2023/03/09 11:22:42;;;;;;;41.80;23.67;;;4.90;99.90;;;;;;5053460;28;20416;-78
2023/03/09 11:25:45;;;;;;;42.13;23.20;;;5.00;99.90;;;;;;5050756;28;20912;-78
2023/03/09 11:28:30;;;;;;;48.27;21.53;;;5.10;99.90;;;;;;5050105;28;20446;-78
2023/03/09 11:30:57;;;;;;;37.07;22.03;;;5.10;99.90;;;;;;5050680;28;20409;-79
2023/03/09 11:33:25;;;;;;;42.17;20.93;;;5.00;99.90;;;;;;5051187;28;20474;-78
2023/03/09 11:35:53;;;;;;;42.60;23.07;;;4.90;99.90;;;;;;5050220;28;20420;-79
2023/03/09 11:38:20;;;;;;;37.17;21.37;;;5.10;99.90;;;;;;5051078;28;20433;-79
2023/03/09 11:40:49;;;;;;;42.17;21.57;;;5.30;99.90;;;;;;5051246;28;20416;-78
2023/03/09 11:43:21;;;;;;;42.77;22.30;;;4.90;99.90;;;;;;5048267;28;20522;-78
2023/03/09 11:45:47;;;;;;;35.20;21.57;;;5.20;99.90;;;;;;5061832;28;20514;-78
2023/03/09 11:48:25;;;;;;;44.87;22.93;;;4.90;99.90;;;;;;5070800;28;20427;-78
2023/03/09 11:51:04;;;;;;;38.57;21.67;;;5.20;99.90;;;;;;5070747;28;20408;-78
2023/03/09 11:53:33;;;;;;;38.90;21.97;;;5.10;99.90;;;;;;5070714;28;20427;-78
2023/03/09 11:56:11;;;;;;;35.27;20.30;;;4.90;99.90;;;;;;5070020;28;20923;-78
2023/03/09 11:58:40;;;;;;;43.50;23.57;;;5.00;99.90;;;;;;5069720;28;20439;-78
2023/03/09 12:01:24;;;;;;;35.10;19.97;;;5.00;99.90;;;;;;5070766;28;20421;-78
2023/03/09 12:04:02;;;;;;;39.13;20.97;;;5.20;99.90;;;;;;5069557;28;20455;-78
2023/03/09 12:06:40;;;;;;;33.53;20.17;;;5.10;99.90;;;;;;5070925;28;20443;-78
2023/03/09 12:09:17;;;;;;;32.60;19.33;;;5.00;99.90;;;;;;5069408;28;20435;-78
2023/03/09 12:12:18;;;;;;;32.80;19.77;;;5.10;99.90;;;;;;5070828;28;20466;-79
2023/03/09 12:14:51;;;;;;;33.23;20.30;;;5.10;99.90;;;;;;5069274;28;20418;-78
2023/03/09 12:17:23;;;;;;;37.20;21.20;;;5.20;99.90;;;;;;5069256;28;20496;-78
2023/03/09 12:19:52;;;;;;;35.93;20.90;;;5.30;99.90;;;;;;5070953;28;20506;-78
2023/03/09 12:22:38;;;;;;;35.03;20.63;;;5.30;99.90;;;;;;5056190;28;20412;-78
2023/03/09 12:25:06;;;;;;;40.30;23.00;;;5.20;99.90;;;;;;5050574;28;20455;-78
2023/03/09 12:27:35;;;;;;;37.87;21.70;;;5.40;99.90;;;;;;5050457;28;20511;-79
2023/03/09 12:30:09;;;;;;;36.87;20.37;;;5.30;99.90;;;;;;5050021;28;20469;-78
2023/03/09 12:32:39;;;;;;;39.60;21.00;;;5.30;99.90;;;;;;5050722;28;20542;-78
2023/03/09 12:35:12;;;;;;;37.93;21.27;;;5.40;99.90;;;;;;5051025;28;20411;-78
2023/03/09 12:37:51;;;;;;;35.80;20.57;;;5.20;99.90;;;;;;5050705;28;20489;-78
2023/03/09 12:40:17;;;;;;;37.30;20.70;;;5.50;99.90;;;;;;5051072;28;20410;-78
2023/03/09 12:42:50;;;;;;;35.30;20.97;;;5.50;99.90;;;;;;5049614;28;20409;-78
2023/03/09 12:45:19;;;;;;;38.60;21.97;;;5.30;99.90;;;;;;5056783;28;20927;-78
2023/03/09 12:48:06;;;;;;;38.60;22.80;;;5.40;99.90;;;;;;5070956;28;20461;-79